KLWV/LWV METAR and TAF weather

Enter ICAO airport designator
Station Type Date Time Source
KLWV METAR 2019/06/20 06:53 UTC NOAA

KLWV 200653Z AUTO 19010KT 8SM OVC006 22/22 A2959 RMK AO2 SLPNO T02170217 $


Station Type Date Time Source
KLWV Decoded METAR 2019/06/20 06:53 UTC NOAA

LAWRENCEVILLE-VINCENNES INTERNATIONAL , IL, United States (KLWV) 38-46N 87-36W 131M
Jun 20, 2019 - 02:53 AM EDT / 2019.06.20 0653 UTC
Wind: from the S (190 degrees) at 12 MPH (10 KT):0
Visibility: 8 mile(s):0
Sky conditions: overcast
Temperature: 71.1 F (21.7 C)
Dew Point: 71.1 F (21.7 C)
Relative Humidity: 100%
Pressure (altimeter): 29.59 in. Hg (1002 hPa)
ob: KLWV 200653Z AUTO 19010KT 8SM OVC006 22/22 A2959 RMK AO2 SLPNO T02170217
cycle: 7

Station Type Date Time Source
KLWV TAF UTC NOAA

Error!

Example: see airport list